createdAt,value
2023-05-20T00:00:31.314Z,13.60
2023-05-20T00:02:57.837Z,11.75
2023-05-20T00:05:24.470Z,13.18
2023-05-20T00:07:50.999Z,15.85
2023-05-20T00:10:17.503Z,11.65
2023-05-20T00:12:44.018Z,11.68
2023-05-20T00:15:12.174Z,15.18
2023-05-20T00:17:38.825Z,18.80
2023-05-20T00:20:06.522Z,8.70
2023-05-20T00:22:33.005Z,10.50
2023-05-20T00:24:59.560Z,17.75
2023-05-20T00:27:26.036Z,15.30
2023-05-20T00:29:52.528Z,12.20
2023-05-20T00:32:19.379Z,12.95
2023-05-20T00:34:55.408Z,13.07
2023-05-20T00:37:21.947Z,10.80
2023-05-20T00:39:48.454Z,9.55
2023-05-20T00:42:21.756Z,12.50
2023-05-20T00:44:48.599Z,10.70
2023-05-20T00:47:16.365Z,11.32
2023-05-20T00:49:43.614Z,11.80
2023-05-20T00:52:10.190Z,9.43
2023-05-20T00:54:36.758Z,9.48
2023-05-20T00:57:05.188Z,9.55
2023-05-20T00:59:31.782Z,13.40
2023-05-20T01:01:58.409Z,11.38
2023-05-20T01:04:25.146Z,10.00
2023-05-20T01:06:52.396Z,11.02
2023-05-20T01:09:18.901Z,13.32
2023-05-20T01:11:49.026Z,14.68
2023-05-20T01:14:16.714Z,12.35
2023-05-20T01:16:44.376Z,10.57
2023-05-20T01:19:40.941Z,11.57
2023-05-20T01:22:09.313Z,11.68
2023-05-20T01:24:36.329Z,13.00
2023-05-20T01:27:03.344Z,13.13
2023-05-20T01:29:29.822Z,12.05
2023-05-20T01:31:57.384Z,14.63
2023-05-20T01:34:25.358Z,14.90
2023-05-20T01:36:52.365Z,15.98
2023-05-20T01:39:18.956Z,16.67
2023-05-20T01:41:45.936Z,17.33
2023-05-20T01:44:12.621Z,15.13
2023-05-20T01:46:39.494Z,15.85
2023-05-20T01:49:06.134Z,13.05
2023-05-20T01:51:35.210Z,14.45
2023-05-20T01:54:01.764Z,12.00
2023-05-20T01:56:28.288Z,11.90
2023-05-20T01:58:54.756Z,11.55
2023-05-20T02:01:21.320Z,14.93
2023-05-20T02:03:47.801Z,15.27
2023-05-20T02:06:14.401Z,11.88
2023-05-20T02:08:40.932Z,17.60
2023-05-20T02:11:07.437Z,11.80
2023-05-20T02:13:33.966Z,10.90
2023-05-20T02:16:00.516Z,14.43
2023-05-20T02:18:27.177Z,10.90
2023-05-20T02:20:53.737Z,10.10
2023-05-20T02:23:20.224Z,11.93
2023-05-20T02:25:47.238Z,11.38
2023-05-20T02:28:13.863Z,12.15
2023-05-20T02:30:40.426Z,14.63
2023-05-20T02:33:07.142Z,12.88
2023-05-20T02:35:33.960Z,12.52
2023-05-20T02:38:00.674Z,12.07
2023-05-20T02:40:27.198Z,18.50
2023-05-20T02:42:53.656Z,17.55
2023-05-20T02:45:20.140Z,15.77
2023-05-20T02:47:46.835Z,13.48
2023-05-20T02:50:13.339Z,16.50
2023-05-20T02:52:42.280Z,14.85
2023-05-20T02:55:09.102Z,12.25
2023-05-20T02:57:38.353Z,12.43
2023-05-20T03:00:08.360Z,12.60
2023-05-20T03:02:35.036Z,19.25
2023-05-20T03:05:02.625Z,17.38
2023-05-20T03:07:29.127Z,14.43
2023-05-20T03:09:55.644Z,14.95
2023-05-20T03:12:22.170Z,15.82
2023-05-20T03:14:48.651Z,13.95
2023-05-20T03:17:15.182Z,17.70
2023-05-20T03:19:41.862Z,15.75
2023-05-20T03:22:08.447Z,18.02
2023-05-20T03:24:35.727Z,13.52
2023-05-20T03:27:02.307Z,16.20
2023-05-20T03:29:28.839Z,16.75
2023-05-20T03:31:55.690Z,18.65
2023-05-20T03:34:22.220Z,22.90
2023-05-20T03:36:48.717Z,21.52
2023-05-20T03:39:15.247Z,20.83
2023-05-20T03:41:41.840Z,24.05
2023-05-20T03:44:08.359Z,22.70
2023-05-20T03:46:34.915Z,24.58
2023-05-20T03:49:05.582Z,21.52
2023-05-20T03:51:32.128Z,21.67
2023-05-20T03:53:58.637Z,25.30
2023-05-20T03:56:26.473Z,22.63
2023-05-20T03:58:53.530Z,28.42
2023-05-20T04:01:21.264Z,24.15
2023-05-20T04:03:48.067Z,27.25
2023-05-20T04:06:14.653Z,30.80
2023-05-20T04:08:41.139Z,24.67
2023-05-20T04:11:07.757Z,25.70
2023-05-20T04:13:34.539Z,26.83
2023-05-20T04:16:02.031Z,39.28
2023-05-20T04:18:31.841Z,25.35
2023-05-20T04:21:00.196Z,26.90
2023-05-20T04:23:26.969Z,33.38
2023-05-20T04:25:53.470Z,36.20
2023-05-20T04:28:23.872Z,30.15
2023-05-20T04:30:58.845Z,28.02
2023-05-20T04:33:26.646Z,30.33
2023-05-20T04:35:53.129Z,31.98
2023-05-20T04:38:20.782Z,30.80
2023-05-20T04:40:47.269Z,33.05
2023-05-20T04:43:15.005Z,29.30
2023-05-20T04:45:42.545Z,32.67
2023-05-20T04:48:09.655Z,32.60
2023-05-20T04:50:37.103Z,32.47
2023-05-20T04:53:04.009Z,34.60
2023-05-20T04:55:30.844Z,31.52
2023-05-20T04:57:57.381Z,33.55
2023-05-20T05:00:24.138Z,37.17
2023-05-20T05:02:50.746Z,41.63
2023-05-20T05:05:17.342Z,33.15
2023-05-20T05:07:43.810Z,33.20
2023-05-20T05:10:10.614Z,34.28
2023-05-20T05:12:37.253Z,34.20
2023-05-20T05:15:04.089Z,46.45
2023-05-20T05:17:30.618Z,41.28
2023-05-20T05:19:57.250Z,31.92
2023-05-20T05:22:23.768Z,39.65
2023-05-20T05:24:50.452Z,34.83
2023-05-20T05:27:17.123Z,39.58
2023-05-20T05:29:43.633Z,32.72
2023-05-20T05:32:10.245Z,34.40
2023-05-20T05:34:36.881Z,35.63
2023-05-20T05:37:03.425Z,34.75
2023-05-20T05:39:29.891Z,41.35
2023-05-20T05:41:56.458Z,34.60
2023-05-20T05:44:22.962Z,36.58
2023-05-20T05:46:49.533Z,39.33
2023-05-20T05:49:16.191Z,39.05
2023-05-20T05:51:43.588Z,38.65
2023-05-20T05:54:10.245Z,35.65
2023-05-20T05:56:36.755Z,35.47
2023-05-20T05:59:04.652Z,38.25
2023-05-20T06:01:31.395Z,41.05
2023-05-20T06:03:58.452Z,41.70
2023-05-20T06:06:25.009Z,37.58
2023-05-20T06:08:51.562Z,39.78
2023-05-20T06:11:18.059Z,35.75
2023-05-20T06:13:44.608Z,40.72
2023-05-20T06:16:11.183Z,36.20
2023-05-20T06:18:37.905Z,35.28
2023-05-20T06:21:04.604Z,36.95
2023-05-20T06:23:31.284Z,34.53
2023-05-20T06:25:59.170Z,32.63
2023-05-20T06:28:26.025Z,40.92
2023-05-20T06:30:54.756Z,36.28
2023-05-20T06:33:26.196Z,40.67
2023-05-20T06:35:56.319Z,35.83
2023-05-20T06:38:23.100Z,36.30
2023-05-20T06:40:50.005Z,39.55
2023-05-20T06:43:16.603Z,38.00
2023-05-20T06:45:43.258Z,37.22
2023-05-20T06:48:10.017Z,37.65
2023-05-20T06:50:36.589Z,35.97
2023-05-20T06:53:04.392Z,35.08
2023-05-20T06:55:31.084Z,40.95
2023-05-20T06:57:57.972Z,34.58
2023-05-20T07:00:24.521Z,36.95
2023-05-20T07:02:51.316Z,34.20
2023-05-20T07:05:17.880Z,35.42
2023-05-20T07:07:44.399Z,34.90
2023-05-20T07:10:10.928Z,29.27
2023-05-20T07:12:37.387Z,31.33
2023-05-20T07:15:04.010Z,31.38
2023-05-20T07:17:30.549Z,31.20
2023-05-20T07:19:57.113Z,34.10
2023-05-20T07:22:23.578Z,34.22
2023-05-20T07:24:50.104Z,29.35
2023-05-20T07:27:16.722Z,34.10
2023-05-20T07:29:43.224Z,35.90
2023-05-20T07:32:10.748Z,29.38
2023-05-20T07:34:37.576Z,24.77
2023-05-20T07:37:04.233Z,25.65
2023-05-20T07:39:30.946Z,29.17
2023-05-20T07:41:57.609Z,23.95
2023-05-20T07:44:24.303Z,23.38
2023-05-20T07:46:50.860Z,25.45
2023-05-20T07:49:17.505Z,30.17
2023-05-20T07:51:44.005Z,19.65
2023-05-20T07:54:10.760Z,17.70
2023-05-20T07:56:37.284Z,20.40
2023-05-20T07:59:04.934Z,23.90
2023-05-20T08:01:31.887Z,19.40
2023-05-20T08:03:58.613Z,22.95
2023-05-20T08:06:26.767Z,22.02
2023-05-20T08:08:54.604Z,16.65
2023-05-20T08:11:24.307Z,18.85
2023-05-20T08:13:51.101Z,19.08
2023-05-20T08:16:17.632Z,18.00
2023-05-20T08:18:44.270Z,18.05
2023-05-20T08:21:10.752Z,18.13
2023-05-20T08:23:40.222Z,16.77
2023-05-20T08:26:07.701Z,19.13
2023-05-20T08:28:34.282Z,12.38
2023-05-20T08:31:04.032Z,19.92
2023-05-20T08:33:30.727Z,14.60
2023-05-20T08:35:57.267Z,16.35
2023-05-20T08:38:23.897Z,19.20
2023-05-20T08:40:57.158Z,14.43
2023-05-20T08:43:24.054Z,19.17
2023-05-20T08:45:52.659Z,18.40
2023-05-20T08:48:20.172Z,15.93
2023-05-20T08:50:50.000Z,18.10
2023-05-20T08:53:16.667Z,17.05
2023-05-20T08:55:46.751Z,13.43
2023-05-20T08:58:15.792Z,16.30
2023-05-20T09:00:42.415Z,13.35
2023-05-20T09:03:10.108Z,16.20
2023-05-20T09:05:37.106Z,15.23
2023-05-20T09:08:08.932Z,14.77
2023-05-20T09:10:36.563Z,14.70
2023-05-20T09:13:06.240Z,14.90
2023-05-20T09:15:34.647Z,11.93
2023-05-20T09:18:07.004Z,15.18
2023-05-20T09:20:34.570Z,11.85
2023-05-20T09:23:01.800Z,12.77
2023-05-20T09:25:29.442Z,12.27
2023-05-20T09:27:56.351Z,11.23
2023-05-20T09:30:26.914Z,16.33
2023-05-20T09:32:54.450Z,12.60
2023-05-20T09:35:23.954Z,12.35
2023-05-20T09:37:56.924Z,13.15
2023-05-20T09:40:25.053Z,14.50
2023-05-20T09:43:01.697Z,11.65
2023-05-20T09:45:28.599Z,11.32
2023-05-20T09:47:56.471Z,12.80
2023-05-20T09:50:24.638Z,11.73
2023-05-20T09:52:55.103Z,14.70
2023-05-20T09:55:23.228Z,14.95
2023-05-20T09:57:50.017Z,12.32
2023-05-20T10:00:19.776Z,10.55
2023-05-20T10:02:51.117Z,12.38
2023-05-20T10:05:25.894Z,12.25
2023-05-20T10:07:58.400Z,12.32
2023-05-20T10:10:28.059Z,14.52
2023-05-20T10:13:13.385Z,13.25
2023-05-20T10:15:42.804Z,17.15
2023-05-20T10:18:29.778Z,14.23
2023-05-20T10:20:57.934Z,12.05
2023-05-20T10:23:27.741Z,13.27
2023-05-20T10:25:58.118Z,13.07
2023-05-20T10:28:29.547Z,14.20
2023-05-20T10:30:56.228Z,16.27
2023-05-20T10:33:22.812Z,13.27
2023-05-20T10:35:52.514Z,11.70
2023-05-20T10:38:19.069Z,13.98
2023-05-20T10:40:45.653Z,16.02
2023-05-20T10:43:26.085Z,12.18
2023-05-20T10:45:54.532Z,16.58
2023-05-20T10:48:23.833Z,12.18
2023-05-20T10:50:50.519Z,12.95
2023-05-20T10:53:25.635Z,14.43
2023-05-20T10:55:59.803Z,11.85
2023-05-20T10:58:26.845Z,12.25
2023-05-20T11:00:54.300Z,11.63
2023-05-20T11:03:24.301Z,15.63
2023-05-20T11:05:51.199Z,14.02
2023-05-20T11:08:28.631Z,14.30
2023-05-20T11:10:59.345Z,16.10
2023-05-20T11:13:31.009Z,12.68
2023-05-20T11:15:59.153Z,18.95
2023-05-20T11:18:32.089Z,20.90
2023-05-20T11:20:59.567Z,12.77
2023-05-20T11:23:27.091Z,16.08
2023-05-20T11:25:54.602Z,18.70
2023-05-20T11:28:23.920Z,14.73
2023-05-20T11:30:51.683Z,13.52
2023-05-20T11:33:28.156Z,12.40
2023-05-20T11:35:54.793Z,14.75
2023-05-20T11:38:21.978Z,23.08
2023-05-20T11:40:56.207Z,16.45
2023-05-20T11:43:23.931Z,11.23
2023-05-20T11:45:55.437Z,12.90
2023-05-20T11:48:23.813Z,19.70
2023-05-20T11:50:50.454Z,13.02
2023-05-20T11:53:19.750Z,14.43
2023-05-20T11:55:48.983Z,17.73
2023-05-20T11:58:16.119Z,13.30
2023-05-20T12:00:50.557Z,14.63
2023-05-20T12:03:22.206Z,10.40
2023-05-20T12:05:51.382Z,16.98
2023-05-20T12:08:18.188Z,13.50
2023-05-20T12:10:47.621Z,15.15
2023-05-20T12:13:14.265Z,20.60
2023-05-20T12:15:41.078Z,10.88
2023-05-20T12:18:07.798Z,12.90
2023-05-20T12:20:34.881Z,12.55
2023-05-20T12:23:02.023Z,11.27
2023-05-20T12:25:28.959Z,13.30
2023-05-20T12:27:58.871Z,14.25
2023-05-20T12:30:25.546Z,14.00
2023-05-20T12:32:52.247Z,16.73
2023-05-20T12:35:26.478Z,15.63
2023-05-20T12:37:53.212Z,13.50
2023-05-20T12:40:19.836Z,14.10
2023-05-20T12:42:46.463Z,17.02
2023-05-20T12:45:13.489Z,14.95
2023-05-20T12:47:40.029Z,17.73
2023-05-20T12:50:07.244Z,15.25
2023-05-20T12:52:33.912Z,32.42
2023-05-20T12:55:01.468Z,25.02
2023-05-20T12:57:28.102Z,14.10
2023-05-20T13:00:00.299Z,15.73
2023-05-20T13:02:26.855Z,21.70
2023-05-20T13:04:53.619Z,14.77
2023-05-20T13:07:20.145Z,19.55
2023-05-20T13:09:47.898Z,17.83
2023-05-20T13:12:14.373Z,19.42
2023-05-20T13:14:41.609Z,14.13
2023-05-20T13:17:08.260Z,16.30
2023-05-20T13:19:34.918Z,18.83
2023-05-20T13:22:12.024Z,22.23
2023-05-20T13:24:39.384Z,17.50
2023-05-20T13:27:06.260Z,22.48
2023-05-20T13:29:33.001Z,17.05
2023-05-20T13:32:01.722Z,15.90
2023-05-20T13:34:28.824Z,13.98
2023-05-20T13:36:55.400Z,16.75
2023-05-20T13:39:22.076Z,17.58
2023-05-20T13:41:48.711Z,14.75
2023-05-20T13:44:15.184Z,17.42
2023-05-20T13:46:41.753Z,16.92
2023-05-20T13:49:08.337Z,12.98
2023-05-20T13:51:34.876Z,19.15
2023-05-20T13:54:01.493Z,17.20
2023-05-20T13:56:28.416Z,16.70
2023-05-20T13:58:55.156Z,15.52
2023-05-20T14:01:21.631Z,23.15
2023-05-20T14:03:48.341Z,13.50
2023-05-20T14:06:18.679Z,17.80
2023-05-20T14:08:46.188Z,14.07
2023-05-20T14:11:12.971Z,21.02
2023-05-20T14:13:39.655Z,25.08
2023-05-20T14:16:06.287Z,16.90
2023-05-20T14:18:32.852Z,15.63
2023-05-20T14:20:59.789Z,16.15
2023-05-20T14:23:26.271Z,13.57
2023-05-20T14:25:52.849Z,18.27
2023-05-20T14:28:19.425Z,16.75
2023-05-20T14:30:45.959Z,12.98
2023-05-20T14:33:12.645Z,17.15
2023-05-20T14:35:39.224Z,21.65
2023-05-20T14:38:05.786Z,14.43
2023-05-20T14:40:32.307Z,14.27
2023-05-20T14:42:58.843Z,15.63
2023-05-20T14:45:25.317Z,14.48
2023-05-20T14:47:51.913Z,19.63
2023-05-20T14:50:18.539Z,18.80
2023-05-20T14:52:45.161Z,15.00
2023-05-20T14:55:11.623Z,15.68
2023-05-20T14:57:38.217Z,14.07
2023-05-20T15:00:05.194Z,17.70
2023-05-20T15:02:31.861Z,21.27
2023-05-20T15:04:58.540Z,12.35
2023-05-20T15:07:25.133Z,14.93
2023-05-20T15:09:51.835Z,15.82
2023-05-20T15:12:18.305Z,15.57
2023-05-20T15:14:44.863Z,14.18
2023-05-20T15:17:11.770Z,15.70
2023-05-20T15:19:41.397Z,16.77
2023-05-20T15:22:08.207Z,13.20
2023-05-20T15:24:34.727Z,11.40
2023-05-20T15:27:01.225Z,14.07
2023-05-20T15:29:27.885Z,12.48
2023-05-20T15:31:54.428Z,20.85
2023-05-20T15:34:22.539Z,21.23
2023-05-20T15:36:49.030Z,13.82
2023-05-20T15:39:15.540Z,18.38
2023-05-20T15:41:42.481Z,16.23
2023-05-20T15:44:09.433Z,12.02
2023-05-20T15:46:36.265Z,14.13
2023-05-20T15:49:02.969Z,14.80
2023-05-20T15:51:29.598Z,14.57
2023-05-20T15:53:56.445Z,13.60
2023-05-20T15:56:23.273Z,16.48
2023-05-20T15:58:49.885Z,14.80
2023-05-20T16:01:16.338Z,15.43
2023-05-20T16:03:43.690Z,14.18
2023-05-20T16:06:11.856Z,18.20
2023-05-20T16:08:38.455Z,14.90
2023-05-20T16:11:05.273Z,15.10
2023-05-20T16:13:31.891Z,13.02
2023-05-20T16:15:58.565Z,16.48
2023-05-20T16:18:26.112Z,16.45
2023-05-20T16:20:52.640Z,14.98
2023-05-20T16:23:19.131Z,18.15
2023-05-20T16:25:45.714Z,15.85
2023-05-20T16:28:12.244Z,18.23
2023-05-20T16:30:39.378Z,14.50
2023-05-20T16:33:06.654Z,17.40
2023-05-20T16:35:33.181Z,14.57
2023-05-20T16:38:01.412Z,19.02
2023-05-20T16:40:28.187Z,20.17
2023-05-20T16:42:54.851Z,14.68
2023-05-20T16:45:21.616Z,19.38
2023-05-20T16:47:48.341Z,17.88
2023-05-20T16:50:14.894Z,16.38
2023-05-20T16:52:41.887Z,18.25
2023-05-20T16:55:08.890Z,16.95
2023-05-20T16:57:36.819Z,18.42
2023-05-20T17:00:07.912Z,15.05
2023-05-20T17:02:34.696Z,18.15
2023-05-20T17:05:01.480Z,15.98
2023-05-20T17:07:28.092Z,15.75
2023-05-20T17:09:54.751Z,15.75
2023-05-20T17:12:21.711Z,14.52
2023-05-20T17:14:48.323Z,17.23
2023-05-20T17:17:15.096Z,13.77
2023-05-20T17:19:41.971Z,14.73
2023-05-20T17:22:08.685Z,13.77
2023-05-20T17:24:37.732Z,16.45
2023-05-20T17:27:09.046Z,14.35
2023-05-20T17:29:35.834Z,12.48
2023-05-20T17:32:02.437Z,17.42
2023-05-20T17:34:29.860Z,15.43
2023-05-20T17:36:57.239Z,16.25
2023-05-20T17:39:23.784Z,14.23
2023-05-20T17:41:50.510Z,14.10
2023-05-20T17:44:17.070Z,13.48
2023-05-20T17:46:43.926Z,16.08
2023-05-20T17:49:10.679Z,14.35
2023-05-20T17:51:37.267Z,15.15
2023-05-20T17:54:03.945Z,16.42
2023-05-20T17:56:30.608Z,14.73
2023-05-20T17:58:57.302Z,15.25
2023-05-20T18:01:23.939Z,13.00
2023-05-20T18:03:50.711Z,16.25
2023-05-20T18:06:18.090Z,13.93
2023-05-20T18:08:45.009Z,15.93
2023-05-20T18:11:11.699Z,15.02
2023-05-20T18:13:39.677Z,22.10
2023-05-20T18:16:06.584Z,18.17
2023-05-20T18:18:33.284Z,15.90
2023-05-20T18:20:59.867Z,14.70
2023-05-20T18:23:26.513Z,14.70
2023-05-20T18:25:53.103Z,16.48
2023-05-20T18:28:19.831Z,16.40
2023-05-20T18:30:46.429Z,22.00
2023-05-20T18:33:13.771Z,17.10
2023-05-20T18:35:41.520Z,13.88
2023-05-20T18:38:09.084Z,17.48
2023-05-20T18:40:35.947Z,14.23
2023-05-20T18:43:03.063Z,14.10
2023-05-20T18:45:29.881Z,15.20
2023-05-20T18:47:59.378Z,15.35
2023-05-20T18:50:26.152Z,18.25
2023-05-20T18:52:52.718Z,11.93
2023-05-20T18:55:19.310Z,17.33
2023-05-20T18:57:45.962Z,14.95
2023-05-20T19:00:12.856Z,16.90
2023-05-20T19:02:39.955Z,16.80
2023-05-20T19:05:10.631Z,12.57
2023-05-20T19:07:37.855Z,15.45
2023-05-20T19:10:04.750Z,17.42
2023-05-20T19:12:31.298Z,16.63
2023-05-20T19:14:57.953Z,15.07
2023-05-20T19:17:24.546Z,16.77
2023-05-20T19:19:51.297Z,13.30
2023-05-20T19:22:17.912Z,12.85
2023-05-20T19:24:44.432Z,18.15
2023-05-20T19:27:11.232Z,19.60
2023-05-20T19:29:37.880Z,22.38
2023-05-20T19:32:04.530Z,17.95
2023-05-20T19:34:31.217Z,16.25
2023-05-20T19:36:57.937Z,16.88
2023-05-20T19:39:24.631Z,16.17
2023-05-20T19:41:51.248Z,19.85
2023-05-20T19:44:18.937Z,19.25
2023-05-20T19:46:45.440Z,19.42
2023-05-20T19:49:12.096Z,20.15
2023-05-20T19:51:38.693Z,16.63
2023-05-20T19:54:05.290Z,13.98
2023-05-20T19:56:31.879Z,16.70
2023-05-20T19:59:01.680Z,20.15
2023-05-20T20:01:28.719Z,17.50
2023-05-20T20:03:55.495Z,15.77
2023-05-20T20:06:22.356Z,14.65
2023-05-20T20:08:49.264Z,16.00
2023-05-20T20:11:15.967Z,18.85
2023-05-20T20:13:42.543Z,14.45
2023-05-20T20:16:09.183Z,18.60
2023-05-20T20:18:35.814Z,17.60
2023-05-20T20:21:06.424Z,21.52
2023-05-20T20:23:36.715Z,22.48
2023-05-20T20:26:04.608Z,17.55
2023-05-20T20:28:31.162Z,17.67
2023-05-20T20:30:57.641Z,20.77
2023-05-20T20:33:24.432Z,18.38
2023-05-20T20:35:51.477Z,15.35
2023-05-20T20:38:19.764Z,21.02
2023-05-20T20:40:47.164Z,18.92
2023-05-20T20:43:20.565Z,16.20
2023-05-20T20:45:47.769Z,18.63
2023-05-20T20:48:17.508Z,18.50
2023-05-20T20:50:48.248Z,22.03
2023-05-20T20:53:18.364Z,16.67
2023-05-20T20:55:46.339Z,17.58
2023-05-20T20:58:15.106Z,17.55
2023-05-20T21:00:44.450Z,15.15
2023-05-20T21:03:12.059Z,18.88
2023-05-20T21:05:39.260Z,14.82
2023-05-20T21:08:08.060Z,22.00
2023-05-20T21:10:36.134Z,17.90
2023-05-20T21:13:02.606Z,20.10
2023-05-20T21:15:29.155Z,20.42
2023-05-20T21:17:55.732Z,23.60
2023-05-20T21:20:22.468Z,17.60
2023-05-20T21:22:49.063Z,20.08
2023-05-20T21:25:16.871Z,21.55
2023-05-20T21:27:43.404Z,19.33
2023-05-20T21:30:10.839Z,26.63
2023-05-20T21:32:37.756Z,23.45
2023-05-20T21:35:04.572Z,24.77
2023-05-20T21:37:31.171Z,21.35
2023-05-20T21:39:57.771Z,21.05
2023-05-20T21:42:24.222Z,35.20
2023-05-20T21:44:51.578Z,26.63
2023-05-20T21:47:19.669Z,23.42
2023-05-20T21:49:47.452Z,27.63
2023-05-20T21:52:14.323Z,22.10
2023-05-20T21:54:41.506Z,22.60
2023-05-20T21:57:08.098Z,23.67
2023-05-20T21:59:34.795Z,23.88
2023-05-20T22:02:01.401Z,22.75
2023-05-20T22:04:28.662Z,19.10
2023-05-20T22:06:56.036Z,23.48
2023-05-20T22:09:22.617Z,24.60
2023-05-20T22:11:49.781Z,27.35
2023-05-20T22:14:17.531Z,23.85
2023-05-20T22:16:48.349Z,23.88
2023-05-20T22:19:16.472Z,20.42
2023-05-20T22:21:50.394Z,21.30
2023-05-20T22:24:17.824Z,19.58
2023-05-20T22:26:45.475Z,21.23
2023-05-20T22:29:12.090Z,24.08
2023-05-20T22:31:38.579Z,25.23
2023-05-20T22:34:05.604Z,24.17
2023-05-20T22:36:36.500Z,21.27
2023-05-20T22:39:04.450Z,22.55
2023-05-20T22:41:31.048Z,20.15
2023-05-20T22:43:57.774Z,24.17
2023-05-20T22:46:24.924Z,23.23
2023-05-20T22:48:54.555Z,21.42
2023-05-20T22:51:21.891Z,21.25
2023-05-20T22:53:48.895Z,24.65
2023-05-20T22:56:15.591Z,27.05
2023-05-20T22:58:42.640Z,26.45
2023-05-20T23:01:09.464Z,26.08
2023-05-20T23:03:36.432Z,28.90
2023-05-20T23:06:03.169Z,25.48
2023-05-20T23:08:29.706Z,29.60
2023-05-20T23:10:56.343Z,19.95
2023-05-20T23:13:22.857Z,24.02
2023-05-20T23:15:50.134Z,21.55
2023-05-20T23:18:17.216Z,27.33
2023-05-20T23:20:44.083Z,24.90
2023-05-20T23:23:11.680Z,27.60
2023-05-20T23:25:39.020Z,23.35
2023-05-20T23:28:06.264Z,22.25
2023-05-20T23:30:32.901Z,25.40
2023-05-20T23:32:59.880Z,24.38
2023-05-20T23:35:26.654Z,22.70
2023-05-20T23:37:53.171Z,21.23
2023-05-20T23:40:19.833Z,25.33
2023-05-20T23:42:46.297Z,22.45
2023-05-20T23:45:13.165Z,23.63
2023-05-20T23:47:39.822Z,27.95
2023-05-20T23:50:06.572Z,30.60
2023-05-20T23:52:33.080Z,22.10
2023-05-20T23:55:00.395Z,24.73
2023-05-20T23:57:27.009Z,27.67
2023-05-20T23:59:53.479Z,25.92
